sensor_id;sensor_type;location;lat;lon;timestamp;temperature;humidity
41262;DHT22;29629;52.532;13.352;2024-03-22T00:01:45;8.90;99.90
41262;DHT22;29629;52.532;13.352;2024-03-22T00:04:14;8.90;99.90
41262;DHT22;29629;52.532;13.352;2024-03-22T00:06:41;8.90;99.90
41262;DHT22;29629;52.532;13.352;2024-03-22T00:09:09;8.60;99.90
41262;DHT22;29629;52.532;13.352;2024-03-22T00:11:35;8.60;99.90
41262;DHT22;29629;52.532;13.352;2024-03-22T00:14:02;8.60;99.90
41262;DHT22;29629;52.532;13.352;2024-03-22T00:16:28;8.70;99.90
41262;DHT22;29629;52.532;13.352;2024-03-22T00:18:55;8.80;99.90
41262;DHT22;29629;52.532;13.352;2024-03-22T00:21:23;8.80;99.90
41262;DHT22;29629;52.532;13.352;2024-03-22T00:23:50;8.80;99.90
41262;DHT22;29629;52.532;13.352;2024-03-22T00:26:16;8.80;99.90
41262;DHT22;29629;52.532;13.352;2024-03-22T00:28:43;8.70;99.90
41262;DHT22;29629;52.532;13.352;2024-03-22T00:31:09;8.60;99.90
41262;DHT22;29629;52.532;13.352;2024-03-22T00:33:36;8.60;99.90
41262;DHT22;29629;52.532;13.352;2024-03-22T00:36:02;8.60;99.90
41262;DHT22;29629;52.532;13.352;2024-03-22T00:38:30;8.60;99.90
41262;DHT22;29629;52.532;13.352;2024-03-22T00:40:56;8.50;99.90
41262;DHT22;29629;52.532;13.352;2024-03-22T00:43:23;8.40;99.90
41262;DHT22;29629;52.532;13.352;2024-03-22T00:45:49;8.40;99.90
41262;DHT22;29629;52.532;13.352;2024-03-22T00:48:16;8.40;99.90
41262;DHT22;29629;52.532;13.352;2024-03-22T00:50:42;8.50;99.90
41262;DHT22;29629;52.532;13.352;2024-03-22T00:53:09;8.50;99.90
41262;DHT22;29629;52.532;13.352;2024-03-22T00:55:37;8.50;99.90
41262;DHT22;29629;52.532;13.352;2024-03-22T00:58:04;8.50;99.90
41262;DHT22;29629;52.532;13.352;2024-03-22T01:00:30;8.50;99.90
41262;DHT22;29629;52.532;13.352;2024-03-22T01:02:56;8.60;99.90
41262;DHT22;29629;52.532;13.352;2024-03-22T01:05:22;8.50;99.90
41262;DHT22;29629;52.532;13.352;2024-03-22T01:07:50;8.60;99.90
41262;DHT22;29629;52.532;13.352;2024-03-22T01:10:16;8.70;99.90
41262;DHT22;29629;52.532;13.352;2024-03-22T01:12:45;8.70;99.90
41262;DHT22;29629;52.532;13.352;2024-03-22T01:15:11;8.70;99.90
41262;DHT22;29629;52.532;13.352;2024-03-22T01:17:38;8.50;99.90
41262;DHT22;29629;52.532;13.352;2024-03-22T01:20:04;8.50;99.90
41262;DHT22;29629;52.532;13.352;2024-03-22T01:22:31;8.50;99.90
41262;DHT22;29629;52.532;13.352;2024-03-22T01:24:57;8.40;99.90
41262;DHT22;29629;52.532;13.352;2024-03-22T01:27:24;8.40;99.90
41262;DHT22;29629;52.532;13.352;2024-03-22T01:29:51;8.50;99.90
41262;DHT22;29629;52.532;13.352;2024-03-22T01:32:18;8.50;99.90
41262;DHT22;29629;52.532;13.352;2024-03-22T01:34:44;8.40;99.90
41262;DHT22;29629;52.532;13.352;2024-03-22T01:37:11;8.50;99.90
41262;DHT22;29629;52.532;13.352;2024-03-22T01:39:37;8.30;99.90
41262;DHT22;29629;52.532;13.352;2024-03-22T01:42:04;8.30;99.90
41262;DHT22;29629;52.532;13.352;2024-03-22T01:44:32;8.40;99.90
41262;DHT22;29629;52.532;13.352;2024-03-22T01:47:01;8.30;99.90
41262;DHT22;29629;52.532;13.352;2024-03-22T01:49:27;8.30;99.90
41262;DHT22;29629;52.532;13.352;2024-03-22T01:51:55;8.30;99.90
41262;DHT22;29629;52.532;13.352;2024-03-22T01:54:21;8.30;99.90
41262;DHT22;29629;52.532;13.352;2024-03-22T01:56:48;8.30;99.90
41262;DHT22;29629;52.532;13.352;2024-03-22T01:59:15;8.30;99.90
41262;DHT22;29629;52.532;13.352;2024-03-22T02:01:42;8.30;99.90
41262;DHT22;29629;52.532;13.352;2024-03-22T02:04:09;8.30;99.90
41262;DHT22;29629;52.532;13.352;2024-03-22T02:06:36;8.30;99.90
41262;DHT22;29629;52.532;13.352;2024-03-22T02:09:02;8.40;99.90
41262;DHT22;29629;52.532;13.352;2024-03-22T02:11:31;8.50;99.90
41262;DHT22;29629;52.532;13.352;2024-03-22T02:13:57;8.40;99.90
41262;DHT22;29629;52.532;13.352;2024-03-22T02:16:24;8.50;99.90
41262;DHT22;29629;52.532;13.352;2024-03-22T02:18:50;8.30;99.90
41262;DHT22;29629;52.532;13.352;2024-03-22T02:21:18;8.50;99.90
41262;DHT22;29629;52.532;13.352;2024-03-22T02:23:46;8.50;99.90
41262;DHT22;29629;52.532;13.352;2024-03-22T02:26:13;8.40;99.90
41262;DHT22;29629;52.532;13.352;2024-03-22T02:28:39;8.40;99.90
41262;DHT22;29629;52.532;13.352;2024-03-22T02:31:06;8.40;99.90
41262;DHT22;29629;52.532;13.352;2024-03-22T02:33:31;8.30;99.90
41262;DHT22;29629;52.532;13.352;2024-03-22T02:35:58;8.30;99.90
41262;DHT22;29629;52.532;13.352;2024-03-22T02:38:24;8.40;99.90
41262;DHT22;29629;52.532;13.352;2024-03-22T02:40:53;8.40;99.90
41262;DHT22;29629;52.532;13.352;2024-03-22T02:43:19;8.30;99.90
41262;DHT22;29629;52.532;13.352;2024-03-22T02:45:46;8.20;99.90
41262;DHT22;29629;52.532;13.352;2024-03-22T02:48:12;8.30;99.90
41262;DHT22;29629;52.532;13.352;2024-03-22T02:50:39;8.20;99.90
41262;DHT22;29629;52.532;13.352;2024-03-22T02:53:05;8.30;99.90
41262;DHT22;29629;52.532;13.352;2024-03-22T02:55:36;8.30;99.90
41262;DHT22;29629;52.532;13.352;2024-03-22T02:58:04;8.30;99.90
41262;DHT22;29629;52.532;13.352;2024-03-22T03:00:31;8.30;99.90
41262;DHT22;29629;52.532;13.352;2024-03-22T03:02:57;8.20;99.90
41262;DHT22;29629;52.532;13.352;2024-03-22T03:05:24;8.20;99.90
41262;DHT22;29629;52.532;13.352;2024-03-22T03:07:50;8.20;99.90
41262;DHT22;29629;52.532;13.352;2024-03-22T03:10:17;8.20;99.90
41262;DHT22;29629;52.532;13.352;2024-03-22T03:12:43;8.30;99.90
41262;DHT22;29629;52.532;13.352;2024-03-22T03:15:11;8.30;99.90
41262;DHT22;29629;52.532;13.352;2024-03-22T03:17:37;8.20;99.90
41262;DHT22;29629;52.532;13.352;2024-03-22T03:20:05;8.20;99.90
41262;DHT22;29629;52.532;13.352;2024-03-22T03:22:33;8.20;99.90
41262;DHT22;29629;52.532;13.352;2024-03-22T03:25:01;8.20;99.90
41262;DHT22;29629;52.532;13.352;2024-03-22T03:27:26;8.10;99.90
41262;DHT22;29629;52.532;13.352;2024-03-22T03:29:53;8.20;99.90
41262;DHT22;29629;52.532;13.352;2024-03-22T03:32:21;8.20;99.90
41262;DHT22;29629;52.532;13.352;2024-03-22T03:34:48;8.20;99.90
41262;DHT22;29629;52.532;13.352;2024-03-22T03:37:14;8.10;99.90
41262;DHT22;29629;52.532;13.352;2024-03-22T03:39:41;8.20;99.90
41262;DHT22;29629;52.532;13.352;2024-03-22T03:42:07;8.20;99.90
41262;DHT22;29629;52.532;13.352;2024-03-22T03:44:34;8.20;99.90
41262;DHT22;29629;52.532;13.352;2024-03-22T03:47:01;8.20;99.90
41262;DHT22;29629;52.532;13.352;2024-03-22T03:49:29;8.30;99.90
41262;DHT22;29629;52.532;13.352;2024-03-22T03:51:55;8.30;99.90
41262;DHT22;29629;52.532;13.352;2024-03-22T03:54:22;8.30;99.90
41262;DHT22;29629;52.532;13.352;2024-03-22T03:56:48;8.30;99.90
41262;DHT22;29629;52.532;13.352;2024-03-22T03:59:15;8.30;99.90
41262;DHT22;29629;52.532;13.352;2024-03-22T04:01:41;8.30;99.90
41262;DHT22;29629;52.532;13.352;2024-03-22T04:04:08;8.20;99.90
41262;DHT22;29629;52.532;13.352;2024-03-22T04:06:35;8.20;99.90
41262;DHT22;29629;52.532;13.352;2024-03-22T04:09:02;8.30;99.90
41262;DHT22;29629;52.532;13.352;2024-03-22T04:11:28;8.40;99.90
41262;DHT22;29629;52.532;13.352;2024-03-22T04:13:55;8.30;99.90
41262;DHT22;29629;52.532;13.352;2024-03-22T04:16:21;8.30;99.90
41262;DHT22;29629;52.532;13.352;2024-03-22T04:18:48;8.30;99.90
41262;DHT22;29629;52.532;13.352;2024-03-22T04:21:14;8.30;99.90
41262;DHT22;29629;52.532;13.352;2024-03-22T04:23:43;8.30;99.90
41262;DHT22;29629;52.532;13.352;2024-03-22T04:26:09;8.30;99.90
41262;DHT22;29629;52.532;13.352;2024-03-22T04:28:36;8.40;99.90
41262;DHT22;29629;52.532;13.352;2024-03-22T04:31:02;8.40;99.90
41262;DHT22;29629;52.532;13.352;2024-03-22T04:33:31;8.40;99.90
41262;DHT22;29629;52.532;13.352;2024-03-22T04:35:58;8.30;99.90
41262;DHT22;29629;52.532;13.352;2024-03-22T04:38:27;8.30;99.90
41262;DHT22;29629;52.532;13.352;2024-03-22T04:40:56;8.30;99.90
41262;DHT22;29629;52.532;13.352;2024-03-22T04:43:23;8.30;99.90
41262;DHT22;29629;52.532;13.352;2024-03-22T04:45:51;8.40;99.90
41262;DHT22;29629;52.532;13.352;2024-03-22T04:48:18;8.30;99.90
41262;DHT22;29629;52.532;13.352;2024-03-22T04:50:45;8.30;99.90
41262;DHT22;29629;52.532;13.352;2024-03-22T04:53:13;8.40;99.90
41262;DHT22;29629;52.532;13.352;2024-03-22T04:55:40;8.30;99.90
41262;DHT22;29629;52.532;13.352;2024-03-22T04:58:12;8.30;99.90
41262;DHT22;29629;52.532;13.352;2024-03-22T05:00:39;8.40;99.90
41262;DHT22;29629;52.532;13.352;2024-03-22T05:03:05;8.40;99.90
41262;DHT22;29629;52.532;13.352;2024-03-22T05:05:33;8.40;99.90
41262;DHT22;29629;52.532;13.352;2024-03-22T05:07:59;8.40;99.90
41262;DHT22;29629;52.532;13.352;2024-03-22T05:10:26;8.50;99.90
41262;DHT22;29629;52.532;13.352;2024-03-22T05:12:51;8.40;99.90
41262;DHT22;29629;52.532;13.352;2024-03-22T05:15:20;8.40;99.90
41262;DHT22;29629;52.532;13.352;2024-03-22T05:17:46;8.40;99.90
41262;DHT22;29629;52.532;13.352;2024-03-22T05:20:13;8.40;99.90
41262;DHT22;29629;52.532;13.352;2024-03-22T05:22:39;8.40;99.90
41262;DHT22;29629;52.532;13.352;2024-03-22T05:25:06;8.40;99.90
41262;DHT22;29629;52.532;13.352;2024-03-22T05:27:34;8.50;99.90
41262;DHT22;29629;52.532;13.352;2024-03-22T05:30:01;8.50;99.90
41262;DHT22;29629;52.532;13.352;2024-03-22T05:32:28;8.50;99.90
41262;DHT22;29629;52.532;13.352;2024-03-22T05:34:55;8.50;99.90
41262;DHT22;29629;52.532;13.352;2024-03-22T05:37:22;8.60;99.90
41262;DHT22;29629;52.532;13.352;2024-03-22T05:39:49;8.60;99.90
41262;DHT22;29629;52.532;13.352;2024-03-22T05:42:15;8.60;99.90
41262;DHT22;29629;52.532;13.352;2024-03-22T05:44:42;8.70;99.90
41262;DHT22;29629;52.532;13.352;2024-03-22T05:47:08;8.70;99.90
41262;DHT22;29629;52.532;13.352;2024-03-22T05:49:36;8.70;99.90
41262;DHT22;29629;52.532;13.352;2024-03-22T05:52:02;8.70;99.90
41262;DHT22;29629;52.532;13.352;2024-03-22T05:54:29;8.70;99.90
41262;DHT22;29629;52.532;13.352;2024-03-22T05:56:55;8.70;99.90
41262;DHT22;29629;52.532;13.352;2024-03-22T05:59:22;8.70;99.90
41262;DHT22;29629;52.532;13.352;2024-03-22T06:01:48;8.80;99.90
41262;DHT22;29629;52.532;13.352;2024-03-22T06:04:15;8.80;99.90
41262;DHT22;29629;52.532;13.352;2024-03-22T06:06:43;8.90;99.90
41262;DHT22;29629;52.532;13.352;2024-03-22T06:09:09;8.80;99.90
41262;DHT22;29629;52.532;13.352;2024-03-22T06:11:37;8.90;99.90
41262;DHT22;29629;52.532;13.352;2024-03-22T06:14:04;8.90;99.90
41262;DHT22;29629;52.532;13.352;2024-03-22T06:16:30;8.90;99.90
41262;DHT22;29629;52.532;13.352;2024-03-22T06:18:56;8.80;99.90
41262;DHT22;29629;52.532;13.352;2024-03-22T06:21:23;8.90;99.90
41262;DHT22;29629;52.532;13.352;2024-03-22T06:23:52;8.90;99.90
41262;DHT22;29629;52.532;13.352;2024-03-22T06:26:18;8.90;99.90
41262;DHT22;29629;52.532;13.352;2024-03-22T06:28:45;9.00;99.90
41262;DHT22;29629;52.532;13.352;2024-03-22T06:31:12;8.90;99.90
41262;DHT22;29629;52.532;13.352;2024-03-22T06:33:39;8.90;99.90
41262;DHT22;29629;52.532;13.352;2024-03-22T06:36:05;9.00;99.90
41262;DHT22;29629;52.532;13.352;2024-03-22T06:38:32;9.00;99.90
41262;DHT22;29629;52.532;13.352;2024-03-22T06:41:00;9.00;99.90
41262;DHT22;29629;52.532;13.352;2024-03-22T06:43:26;9.00;99.90
41262;DHT22;29629;52.532;13.352;2024-03-22T06:45:53;9.10;99.90
41262;DHT22;29629;52.532;13.352;2024-03-22T06:48:19;9.10;99.90
41262;DHT22;29629;52.532;13.352;2024-03-22T06:50:46;9.00;99.90
41262;DHT22;29629;52.532;13.352;2024-03-22T06:53:12;9.00;99.90
41262;DHT22;29629;52.532;13.352;2024-03-22T06:55:39;9.10;99.90
41262;DHT22;29629;52.532;13.352;2024-03-22T06:58:06;9.10;99.90
41262;DHT22;29629;52.532;13.352;2024-03-22T07:00:33;9.10;99.90
41262;DHT22;29629;52.532;13.352;2024-03-22T07:03:00;9.10;99.90
41262;DHT22;29629;52.532;13.352;2024-03-22T07:05:28;9.20;99.90
41262;DHT22;29629;52.532;13.352;2024-03-22T07:07:54;9.30;99.90
41262;DHT22;29629;52.532;13.352;2024-03-22T07:10:23;9.30;99.90
41262;DHT22;29629;52.532;13.352;2024-03-22T07:12:53;9.40;99.90
41262;DHT22;29629;52.532;13.352;2024-03-22T07:15:23;9.40;99.90
41262;DHT22;29629;52.532;13.352;2024-03-22T07:17:49;9.40;99.90
41262;DHT22;29629;52.532;13.352;2024-03-22T07:20:16;9.40;99.90
41262;DHT22;29629;52.532;13.352;2024-03-22T07:22:42;9.40;99.90
41262;DHT22;29629;52.532;13.352;2024-03-22T07:25:09;9.40;99.90
41262;DHT22;29629;52.532;13.352;2024-03-22T07:27:35;9.40;99.90
41262;DHT22;29629;52.532;13.352;2024-03-22T07:30:02;9.40;99.90
41262;DHT22;29629;52.532;13.352;2024-03-22T07:32:30;9.40;99.90
41262;DHT22;29629;52.532;13.352;2024-03-22T07:34:57;9.50;99.90
41262;DHT22;29629;52.532;13.352;2024-03-22T07:37:23;9.50;99.90
41262;DHT22;29629;52.532;13.352;2024-03-22T07:39:50;9.50;99.90
41262;DHT22;29629;52.532;13.352;2024-03-22T07:42:16;9.50;99.90
41262;DHT22;29629;52.532;13.352;2024-03-22T07:44:43;9.70;99.90
41262;DHT22;29629;52.532;13.352;2024-03-22T07:47:09;9.90;99.90
41262;DHT22;29629;52.532;13.352;2024-03-22T07:49:37;10.10;99.90
41262;DHT22;29629;52.532;13.352;2024-03-22T07:52:03;9.80;99.90
41262;DHT22;29629;52.532;13.352;2024-03-22T07:54:30;9.80;99.90
41262;DHT22;29629;52.532;13.352;2024-03-22T07:56:57;9.70;99.90
41262;DHT22;29629;52.532;13.352;2024-03-22T07:59:24;9.70;99.90
41262;DHT22;29629;52.532;13.352;2024-03-22T08:01:50;9.80;99.90
41262;DHT22;29629;52.532;13.352;2024-03-22T08:04:17;9.90;99.90
41262;DHT22;29629;52.532;13.352;2024-03-22T08:06:45;10.00;99.90
41262;DHT22;29629;52.532;13.352;2024-03-22T08:09:12;9.90;99.90
41262;DHT22;29629;52.532;13.352;2024-03-22T08:11:38;10.10;99.90
41262;DHT22;29629;52.532;13.352;2024-03-22T08:14:05;10.00;99.90
41262;DHT22;29629;52.532;13.352;2024-03-22T08:16:31;10.10;99.90
41262;DHT22;29629;52.532;13.352;2024-03-22T08:18:58;10.10;99.90
41262;DHT22;29629;52.532;13.352;2024-03-22T08:21:24;10.10;99.90
41262;DHT22;29629;52.532;13.352;2024-03-22T08:23:53;10.20;99.90
41262;DHT22;29629;52.532;13.352;2024-03-22T08:26:19;10.10;99.90
41262;DHT22;29629;52.532;13.352;2024-03-22T08:28:46;10.10;99.90
41262;DHT22;29629;52.532;13.352;2024-03-22T08:31:13;10.20;99.90
41262;DHT22;29629;52.532;13.352;2024-03-22T08:33:40;10.20;99.90
41262;DHT22;29629;52.532;13.352;2024-03-22T08:36:06;10.20;99.90
41262;DHT22;29629;52.532;13.352;2024-03-22T08:38:33;10.30;99.90
41262;DHT22;29629;52.532;13.352;2024-03-22T08:41:00;10.30;99.90
41262;DHT22;29629;52.532;13.352;2024-03-22T08:43:29;10.30;99.90
41262;DHT22;29629;52.532;13.352;2024-03-22T08:45:55;10.50;99.90
41262;DHT22;29629;52.532;13.352;2024-03-22T08:48:23;10.60;99.90
41262;DHT22;29629;52.532;13.352;2024-03-22T08:50:49;10.70;99.90
41262;DHT22;29629;52.532;13.352;2024-03-22T08:53:16;10.80;99.90
41262;DHT22;29629;52.532;13.352;2024-03-22T08:55:45;10.70;99.90
41262;DHT22;29629;52.532;13.352;2024-03-22T08:58:14;10.80;99.90
41262;DHT22;29629;52.532;13.352;2024-03-22T09:00:41;10.90;99.90
41262;DHT22;29629;52.532;13.352;2024-03-22T09:03:08;11.00;99.90
41262;DHT22;29629;52.532;13.352;2024-03-22T09:05:34;11.00;99.90
41262;DHT22;29629;52.532;13.352;2024-03-22T09:08:02;11.10;99.90
41262;DHT22;29629;52.532;13.352;2024-03-22T09:10:29;11.20;99.90
41262;DHT22;29629;52.532;13.352;2024-03-22T09:12:56;11.30;99.90
41262;DHT22;29629;52.532;13.352;2024-03-22T09:15:23;11.10;99.90
41262;DHT22;29629;52.532;13.352;2024-03-22T09:17:52;11.30;99.90
41262;DHT22;29629;52.532;13.352;2024-03-22T09:20:18;11.20;99.90
41262;DHT22;29629;52.532;13.352;2024-03-22T09:22:45;11.30;99.90
41262;DHT22;29629;52.532;13.352;2024-03-22T09:25:11;11.40;99.90
41262;DHT22;29629;52.532;13.352;2024-03-22T09:27:38;11.50;99.90
41262;DHT22;29629;52.532;13.352;2024-03-22T09:30:05;11.40;99.90
41262;DHT22;29629;52.532;13.352;2024-03-22T09:32:33;11.60;99.90
41262;DHT22;29629;52.532;13.352;2024-03-22T09:34:59;11.70;99.90
41262;DHT22;29629;52.532;13.352;2024-03-22T09:37:26;11.80;99.90
41262;DHT22;29629;52.532;13.352;2024-03-22T09:39:52;11.90;99.90
41262;DHT22;29629;52.532;13.352;2024-03-22T09:42:22;11.80;99.90
41262;DHT22;29629;52.532;13.352;2024-03-22T09:44:49;11.90;99.90
41262;DHT22;29629;52.532;13.352;2024-03-22T09:47:17;12.00;99.90
41262;DHT22;29629;52.532;13.352;2024-03-22T09:49:45;12.00;99.90
41262;DHT22;29629;52.532;13.352;2024-03-22T09:52:14;11.90;99.90
41262;DHT22;29629;52.532;13.352;2024-03-22T09:54:41;11.80;99.90
41262;DHT22;29629;52.532;13.352;2024-03-22T09:57:11;11.90;99.90
41262;DHT22;29629;52.532;13.352;2024-03-22T09:59:39;12.10;99.90
41262;DHT22;29629;52.532;13.352;2024-03-22T10:02:08;12.20;99.90
41262;DHT22;29629;52.532;13.352;2024-03-22T10:04:34;12.40;99.90
41262;DHT22;29629;52.532;13.352;2024-03-22T10:07:03;12.40;99.90
41262;DHT22;29629;52.532;13.352;2024-03-22T10:09:29;12.30;99.90
41262;DHT22;29629;52.532;13.352;2024-03-22T10:11:56;12.50;99.90
41262;DHT22;29629;52.532;13.352;2024-03-22T10:14:22;12.70;99.90
41262;DHT22;29629;52.532;13.352;2024-03-22T10:16:51;12.50;99.90
41262;DHT22;29629;52.532;13.352;2024-03-22T10:19:19;12.30;99.90
41262;DHT22;29629;52.532;13.352;2024-03-22T10:21:46;12.40;99.90
41262;DHT22;29629;52.532;13.352;2024-03-22T10:24:14;12.30;99.90
41262;DHT22;29629;52.532;13.352;2024-03-22T10:26:41;12.30;99.90
41262;DHT22;29629;52.532;13.352;2024-03-22T10:29:07;12.40;99.90
41262;DHT22;29629;52.532;13.352;2024-03-22T10:31:35;12.40;99.90
41262;DHT22;29629;52.532;13.352;2024-03-22T10:34:02;12.50;99.90
41262;DHT22;29629;52.532;13.352;2024-03-22T10:36:32;12.60;99.90
41262;DHT22;29629;52.532;13.352;2024-03-22T10:38:59;12.60;99.90
41262;DHT22;29629;52.532;13.352;2024-03-22T10:41:28;13.00;99.90
41262;DHT22;29629;52.532;13.352;2024-03-22T10:43:54;13.30;99.90
41262;DHT22;29629;52.532;13.352;2024-03-22T10:46:24;13.90;99.90
41262;DHT22;29629;52.532;13.352;2024-03-22T10:48:55;14.00;99.90
41262;DHT22;29629;52.532;13.352;2024-03-22T10:51:24;14.30;99.90
41262;DHT22;29629;52.532;13.352;2024-03-22T10:53:52;14.40;99.90
41262;DHT22;29629;52.532;13.352;2024-03-22T10:56:21;15.00;99.90
41262;DHT22;29629;52.532;13.352;2024-03-22T10:58:49;14.40;99.90
41262;DHT22;29629;52.532;13.352;2024-03-22T11:01:26;14.50;99.90
41262;DHT22;29629;52.532;13.352;2024-03-22T11:04:03;14.40;99.90
41262;DHT22;29629;52.532;13.352;2024-03-22T11:06:31;14.30;99.90
41262;DHT22;29629;52.532;13.352;2024-03-22T11:08:59;14.60;99.90
41262;DHT22;29629;52.532;13.352;2024-03-22T11:11:28;14.90;99.90
41262;DHT22;29629;52.532;13.352;2024-03-22T11:13:55;14.50;99.90
41262;DHT22;29629;52.532;13.352;2024-03-22T11:16:23;14.20;99.90
41262;DHT22;29629;52.532;13.352;2024-03-22T11:18:50;13.90;99.90
41262;DHT22;29629;52.532;13.352;2024-03-22T11:21:17;14.00;99.90
41262;DHT22;29629;52.532;13.352;2024-03-22T11:23:45;13.80;99.90
41262;DHT22;29629;52.532;13.352;2024-03-22T11:26:13;13.60;99.90
41262;DHT22;29629;52.532;13.352;2024-03-22T11:28:39;13.60;99.90
41262;DHT22;29629;52.532;13.352;2024-03-22T11:31:07;13.60;99.90
41262;DHT22;29629;52.532;13.352;2024-03-22T11:33:33;13.40;99.90
41262;DHT22;29629;52.532;13.352;2024-03-22T11:36:00;13.30;99.90
41262;DHT22;29629;52.532;13.352;2024-03-22T11:38:26;13.30;99.90
41262;DHT22;29629;52.532;13.352;2024-03-22T11:40:55;13.30;99.90
41262;DHT22;29629;52.532;13.352;2024-03-22T11:43:21;13.20;99.90
41262;DHT22;29629;52.532;13.352;2024-03-22T11:45:48;13.20;99.90
41262;DHT22;29629;52.532;13.352;2024-03-22T11:48:16;13.20;99.90
41262;DHT22;29629;52.532;13.352;2024-03-22T11:50:43;13.10;99.90
41262;DHT22;29629;52.532;13.352;2024-03-22T11:53:09;13.10;99.90
41262;DHT22;29629;52.532;13.352;2024-03-22T11:55:36;13.10;99.90
41262;DHT22;29629;52.532;13.352;2024-03-22T11:58:02;13.10;99.90
41262;DHT22;29629;52.532;13.352;2024-03-22T12:00:29;13.00;99.90
41262;DHT22;29629;52.532;13.352;2024-03-22T12:02:54;13.10;99.90
41262;DHT22;29629;52.532;13.352;2024-03-22T12:05:23;13.00;99.90
41262;DHT22;29629;52.532;13.352;2024-03-22T12:07:51;12.90;99.90
41262;DHT22;29629;52.532;13.352;2024-03-22T12:10:18;12.90;99.90
41262;DHT22;29629;52.532;13.352;2024-03-22T12:12:44;12.80;99.90
41262;DHT22;29629;52.532;13.352;2024-03-22T12:15:11;12.80;99.90
41262;DHT22;29629;52.532;13.352;2024-03-22T12:17:37;12.70;99.90
41262;DHT22;29629;52.532;13.352;2024-03-22T12:20:06;12.70;99.90
41262;DHT22;29629;52.532;13.352;2024-03-22T12:22:35;12.70;99.90
41262;DHT22;29629;52.532;13.352;2024-03-22T12:25:02;12.90;99.90
41262;DHT22;29629;52.532;13.352;2024-03-22T12:27:30;12.80;99.90
41262;DHT22;29629;52.532;13.352;2024-03-22T12:29:57;12.70;99.90
41262;DHT22;29629;52.532;13.352;2024-03-22T12:32:22;12.50;99.90
41262;DHT22;29629;52.532;13.352;2024-03-22T12:34:49;12.50;99.90
41262;DHT22;29629;52.532;13.352;2024-03-22T12:37:15;12.20;99.90
41262;DHT22;29629;52.532;13.352;2024-03-22T12:39:44;12.10;99.90
41262;DHT22;29629;52.532;13.352;2024-03-22T12:42:10;12.10;99.90
41262;DHT22;29629;52.532;13.352;2024-03-22T12:44:37;12.00;99.90
41262;DHT22;29629;52.532;13.352;2024-03-22T12:47:03;12.20;99.90
41262;DHT22;29629;52.532;13.352;2024-03-22T12:49:30;12.20;99.90
41262;DHT22;29629;52.532;13.352;2024-03-22T12:51:56;12.20;99.90
41262;DHT22;29629;52.532;13.352;2024-03-22T12:54:23;12.30;99.90
41262;DHT22;29629;52.532;13.352;2024-03-22T12:56:52;12.20;99.90
41262;DHT22;29629;52.532;13.352;2024-03-22T12:59:19;12.00;99.90
41262;DHT22;29629;52.532;13.352;2024-03-22T13:01:45;12.00;99.90
41262;DHT22;29629;52.532;13.352;2024-03-22T13:04:12;11.90;99.90
41262;DHT22;29629;52.532;13.352;2024-03-22T13:06:38;11.80;99.90
41262;DHT22;29629;52.532;13.352;2024-03-22T13:09:05;11.90;99.90
41262;DHT22;29629;52.532;13.352;2024-03-22T13:11:31;11.80;99.90
41262;DHT22;29629;52.532;13.352;2024-03-22T13:14:00;11.60;99.90
41262;DHT22;29629;52.532;13.352;2024-03-22T13:16:26;11.60;99.90
41262;DHT22;29629;52.532;13.352;2024-03-22T13:18:53;11.50;99.90
41262;DHT22;29629;52.532;13.352;2024-03-22T13:21:19;11.60;99.90
41262;DHT22;29629;52.532;13.352;2024-03-22T13:23:46;11.50;99.90
41262;DHT22;29629;52.532;13.352;2024-03-22T13:26:12;11.50;99.90
41262;DHT22;29629;52.532;13.352;2024-03-22T13:28:39;11.60;99.90
41262;DHT22;29629;52.532;13.352;2024-03-22T13:31:08;11.70;99.90
41262;DHT22;29629;52.532;13.352;2024-03-22T13:33:35;11.60;99.90
41262;DHT22;29629;52.532;13.352;2024-03-22T13:36:02;11.70;99.90
41262;DHT22;29629;52.532;13.352;2024-03-22T13:38:30;11.70;99.90
41262;DHT22;29629;52.532;13.352;2024-03-22T13:40:56;11.70;99.90
41262;DHT22;29629;52.532;13.352;2024-03-22T13:43:25;11.70;99.90
41262;DHT22;29629;52.532;13.352;2024-03-22T13:45:51;11.70;99.90
41262;DHT22;29629;52.532;13.352;2024-03-22T13:48:22;11.70;99.90
41262;DHT22;29629;52.532;13.352;2024-03-22T13:50:50;11.80;99.90
41262;DHT22;29629;52.532;13.352;2024-03-22T13:53:17;11.70;99.90
41262;DHT22;29629;52.532;13.352;2024-03-22T13:55:43;11.80;99.90
41262;DHT22;29629;52.532;13.352;2024-03-22T13:58:11;11.70;99.90
41262;DHT22;29629;52.532;13.352;2024-03-22T14:00:38;11.70;99.90
41262;DHT22;29629;52.532;13.352;2024-03-22T14:03:05;11.80;99.90
41262;DHT22;29629;52.532;13.352;2024-03-22T14:05:32;11.80;99.90
41262;DHT22;29629;52.532;13.352;2024-03-22T14:07:59;11.70;99.90
41262;DHT22;29629;52.532;13.352;2024-03-22T14:10:25;11.60;99.90
41262;DHT22;29629;52.532;13.352;2024-03-22T14:12:53;11.70;99.90
41262;DHT22;29629;52.532;13.352;2024-03-22T14:15:19;11.70;99.90
41262;DHT22;29629;52.532;13.352;2024-03-22T14:17:46;11.60;99.90
41262;DHT22;29629;52.532;13.352;2024-03-22T14:20:13;11.50;99.90
41262;DHT22;29629;52.532;13.352;2024-03-22T14:22:41;11.60;99.90
41262;DHT22;29629;52.532;13.352;2024-03-22T14:25:08;11.70;99.90
41262;DHT22;29629;52.532;13.352;2024-03-22T14:27:36;11.60;99.90
41262;DHT22;29629;52.532;13.352;2024-03-22T14:30:04;11.60;99.90
41262;DHT22;29629;52.532;13.352;2024-03-22T14:32:33;11.60;99.90
41262;DHT22;29629;52.532;13.352;2024-03-22T14:34:59;11.60;99.90
41262;DHT22;29629;52.532;13.352;2024-03-22T14:37:26;11.60;99.90
41262;DHT22;29629;52.532;13.352;2024-03-22T14:39:54;11.70;99.90
41262;DHT22;29629;52.532;13.352;2024-03-22T14:42:21;11.70;99.90
41262;DHT22;29629;52.532;13.352;2024-03-22T14:44:46;11.70;99.90
41262;DHT22;29629;52.532;13.352;2024-03-22T14:47:13;11.70;99.90
41262;DHT22;29629;52.532;13.352;2024-03-22T14:49:39;11.80;99.90
41262;DHT22;29629;52.532;13.352;2024-03-22T14:52:07;11.80;99.90
41262;DHT22;29629;52.532;13.352;2024-03-22T14:54:33;11.80;99.90
41262;DHT22;29629;52.532;13.352;2024-03-22T14:57:01;11.90;99.90
41262;DHT22;29629;52.532;13.352;2024-03-22T14:59:28;11.90;99.90
41262;DHT22;29629;52.532;13.352;2024-03-22T15:01:54;11.90;99.90
41262;DHT22;29629;52.532;13.352;2024-03-22T15:04:20;11.90;99.90
41262;DHT22;29629;52.532;13.352;2024-03-22T15:06:48;11.90;99.90
41262;DHT22;29629;52.532;13.352;2024-03-22T15:09:17;11.90;99.90
41262;DHT22;29629;52.532;13.352;2024-03-22T15:11:44;11.80;99.90
41262;DHT22;29629;52.532;13.352;2024-03-22T15:14:11;11.80;99.90
41262;DHT22;29629;52.532;13.352;2024-03-22T15:16:39;11.80;99.90
41262;DHT22;29629;52.532;13.352;2024-03-22T15:19:05;11.80;99.90
41262;DHT22;29629;52.532;13.352;2024-03-22T15:21:32;11.80;99.90
41262;DHT22;29629;52.532;13.352;2024-03-22T15:23:58;11.90;99.90